createdAt,value
2022-10-15T03:18:21.299Z,120.53
2022-10-15T03:20:55.437Z,126.70
2022-10-15T03:23:24.004Z,135.07
2022-10-15T03:26:00.628Z,122.32
2022-10-15T03:28:28.998Z,137.43
2022-10-15T03:30:57.246Z,124.38
2022-10-15T03:33:27.134Z,122.28
2022-10-15T03:35:57.386Z,138.60
2022-10-15T03:38:26.294Z,127.57
2022-10-15T03:40:55.403Z,136.30
2022-10-15T03:43:32.470Z,129.55
2022-10-15T03:46:04.277Z,120.07
2022-10-15T03:48:36.835Z,131.85
2022-10-15T03:51:05.461Z,129.48
2022-10-15T03:53:33.751Z,133.80
2022-10-15T03:56:05.303Z,116.50
2022-10-15T03:58:34.708Z,121.03
2022-10-15T04:01:10.788Z,128.57
2022-10-15T04:03:41.338Z,130.93
2022-10-15T04:06:10.635Z,130.90
2022-10-15T04:08:40.375Z,121.53
2022-10-15T04:11:25.188Z,124.40
2022-10-15T04:14:04.744Z,123.10
2022-10-15T04:16:34.400Z,124.75
2022-10-15T04:19:11.962Z,127.78
2022-10-15T04:21:42.431Z,121.03
2022-10-15T04:24:19.010Z,123.00
2022-10-15T04:26:47.941Z,118.72
2022-10-15T04:29:16.222Z,124.22
2022-10-15T04:31:44.687Z,107.25
2022-10-15T04:34:14.239Z,118.07
2022-10-15T04:36:42.635Z,111.93
2022-10-15T04:39:15.464Z,121.10
2022-10-15T04:41:45.374Z,116.07
2022-10-15T04:44:16.395Z,113.07
2022-10-15T04:46:50.733Z,118.25
2022-10-15T04:49:36.261Z,114.03
2022-10-15T04:52:11.070Z,104.80
2022-10-15T04:54:54.059Z,99.05
2022-10-15T04:57:22.562Z,102.97
2022-10-15T04:59:55.387Z,116.63
2022-10-15T05:02:34.727Z,111.75
2022-10-15T05:05:23.222Z,104.63
2022-10-15T05:08:01.182Z,111.22
2022-10-15T05:10:31.028Z,115.50
2022-10-15T05:13:03.831Z,100.35
2022-10-15T05:15:35.203Z,123.50
2022-10-15T05:18:07.198Z,103.55
2022-10-15T05:20:46.408Z,109.90
2022-10-15T05:23:18.306Z,108.68
2022-10-15T05:25:55.510Z,97.47
2022-10-15T05:28:27.195Z,94.38
2022-10-15T05:30:55.589Z,118.10
2022-10-15T05:33:23.890Z,109.68
2022-10-15T05:35:53.513Z,106.85
2022-10-15T05:38:22.871Z,104.30
2022-10-15T05:40:51.593Z,105.03
2022-10-15T05:43:24.472Z,103.97
2022-10-15T05:45:55.458Z,102.32
2022-10-15T05:48:25.691Z,97.55
2022-10-15T05:50:55.710Z,106.47
2022-10-15T05:53:27.010Z,103.75
2022-10-15T05:56:05.855Z,100.72
2022-10-15T05:58:37.375Z,103.57
2022-10-15T06:01:09.014Z,100.15
2022-10-15T06:03:40.712Z,98.95
2022-10-15T06:06:17.458Z,95.47
2022-10-15T06:08:46.126Z,99.47
2022-10-15T06:11:14.560Z,98.53
2022-10-15T06:13:44.900Z,89.45
2022-10-15T06:16:16.590Z,88.40
2022-10-15T06:18:47.857Z,88.82
2022-10-15T06:21:18.031Z,102.65
2022-10-15T06:23:46.722Z,93.53
2022-10-15T06:26:14.925Z,96.25
2022-10-15T06:28:43.189Z,99.65
2022-10-15T06:31:12.374Z,95.32
2022-10-15T06:33:40.691Z,105.88
2022-10-15T06:36:13.713Z,106.03
2022-10-15T06:38:44.803Z,104.63
2022-10-15T06:41:13.405Z,100.63
2022-10-15T06:43:41.656Z,67.97
2022-10-15T06:46:10.959Z,55.90
2022-10-15T06:48:39.325Z,54.78
2022-10-15T06:51:07.889Z,41.72
2022-10-15T06:53:36.225Z,35.88
2022-10-15T06:56:06.447Z,38.08
2022-10-15T06:58:39.392Z,38.28
2022-10-15T07:01:12.128Z,35.60
2022-10-15T07:03:40.587Z,34.13
2022-10-15T07:06:10.871Z,32.80
2022-10-15T07:08:39.148Z,31.70
2022-10-15T07:11:10.312Z,33.13
2022-10-15T07:13:38.619Z,33.42
2022-10-15T07:16:08.111Z,36.13
2022-10-15T07:18:36.898Z,34.13
2022-10-15T07:21:06.863Z,30.17
2022-10-15T07:23:35.155Z,33.22
2022-10-15T07:26:03.639Z,31.27
2022-10-15T07:28:33.512Z,33.78
2022-10-15T07:31:03.274Z,32.85
2022-10-15T07:33:31.670Z,32.30
2022-10-15T07:36:05.715Z,32.67
2022-10-15T07:38:34.083Z,33.25
2022-10-15T07:41:03.529Z,39.90
2022-10-15T07:43:35.449Z,36.20
2022-10-15T07:46:05.015Z,37.00
2022-10-15T07:48:33.668Z,34.92
2022-10-15T07:51:04.124Z,35.13
2022-10-15T07:53:36.218Z,35.65
2022-10-15T07:56:07.977Z,34.28
2022-10-15T07:58:38.369Z,30.00
2022-10-15T08:01:07.849Z,33.83
2022-10-15T08:03:36.354Z,34.70
2022-10-15T08:06:06.449Z,33.70
2022-10-15T08:08:35.444Z,33.33
2022-10-15T08:11:07.289Z,34.92
2022-10-15T08:13:39.176Z,34.05
2022-10-15T08:16:08.108Z,38.47
2022-10-15T08:18:37.642Z,32.33
2022-10-15T08:21:06.812Z,32.90
2022-10-15T08:23:35.186Z,31.05
2022-10-15T08:26:03.993Z,29.90
2022-10-15T08:28:33.407Z,30.83
2022-10-15T08:31:05.791Z,32.97
2022-10-15T08:33:35.303Z,38.30
2022-10-15T08:36:05.225Z,28.90
2022-10-15T08:38:33.892Z,29.60
2022-10-15T08:41:04.194Z,35.20
2022-10-15T08:43:39.212Z,30.58
2022-10-15T08:46:22.862Z,30.88
2022-10-15T08:48:55.212Z,30.95
2022-10-15T08:51:28.002Z,32.67
2022-10-15T08:54:00.967Z,30.80
2022-10-15T08:56:37.152Z,29.67
2022-10-15T08:59:18.365Z,29.98
2022-10-15T09:01:53.913Z,28.70
2022-10-15T09:04:30.845Z,32.20
2022-10-15T09:07:08.122Z,30.73
2022-10-15T09:09:44.951Z,37.80
2022-10-15T09:12:37.822Z,32.08
2022-10-15T09:15:11.513Z,32.38
2022-10-15T09:17:42.859Z,28.92
2022-10-15T09:20:19.221Z,28.70
2022-10-15T09:22:55.446Z,27.13
2022-10-15T09:25:27.464Z,30.48
2022-10-15T09:28:07.530Z,30.48
2022-10-15T09:30:40.646Z,27.10
2022-10-15T09:33:18.988Z,27.25
2022-10-15T09:35:52.379Z,33.00
2022-10-15T09:38:33.239Z,27.45
2022-10-15T09:41:16.709Z,31.83
2022-10-15T09:43:49.506Z,28.70
2022-10-15T09:46:17.921Z,27.17
2022-10-15T09:48:52.080Z,30.23
2022-10-15T09:51:26.821Z,29.58
2022-10-15T09:54:04.309Z,31.20
2022-10-15T09:56:37.737Z,30.92
2022-10-15T09:59:09.599Z,26.77
2022-10-15T10:01:38.157Z,27.30
2022-10-15T10:04:19.079Z,30.25
2022-10-15T10:06:51.052Z,25.40
2022-10-15T10:09:22.627Z,26.27
2022-10-15T10:11:53.816Z,26.08
2022-10-15T10:14:29.057Z,26.02
2022-10-15T10:17:09.576Z,28.65
2022-10-15T10:19:39.697Z,23.95
2022-10-15T10:22:14.079Z,28.85
2022-10-15T10:24:42.615Z,24.95
2022-10-15T10:27:22.205Z,24.65
2022-10-15T10:29:55.510Z,29.90
2022-10-15T10:32:29.490Z,23.80
2022-10-15T10:35:00.950Z,31.15
2022-10-15T10:37:29.548Z,24.30
2022-10-15T10:40:00.073Z,25.60
2022-10-15T10:42:33.928Z,25.27
2022-10-15T10:45:29.996Z,21.55
2022-10-15T10:48:00.682Z,25.27
2022-10-15T10:50:33.720Z,25.23
2022-10-15T10:53:22.045Z,20.65
2022-10-15T10:55:51.688Z,26.67
2022-10-15T10:58:28.630Z,23.23
2022-10-15T11:00:58.439Z,21.77
2022-10-15T11:03:36.456Z,23.77
2022-10-15T11:06:53.542Z,23.38
2022-10-15T11:09:42.138Z,23.05
2022-10-15T11:12:25.638Z,19.92
2022-10-15T11:14:58.600Z,20.27
2022-10-15T11:17:44.188Z,24.35
2022-10-15T11:20:36.261Z,22.13
2022-10-15T11:23:26.502Z,21.52
2022-10-15T11:26:02.914Z,20.80
2022-10-15T11:28:50.509Z,23.23
2022-10-15T11:31:28.424Z,21.30
2022-10-15T11:34:07.555Z,19.55
2022-10-15T11:36:53.625Z,20.88
2022-10-15T11:39:35.834Z,22.13
2022-10-15T11:42:14.380Z,22.40
2022-10-15T11:44:59.272Z,18.40
2022-10-15T11:47:41.791Z,22.75
2022-10-15T11:50:21.209Z,22.15
2022-10-15T11:53:00.342Z,18.95
2022-10-15T11:55:37.870Z,19.08
2022-10-15T11:58:12.779Z,20.95
2022-10-15T12:00:45.089Z,19.80
2022-10-15T12:03:19.230Z,17.85
2022-10-15T12:05:53.376Z,18.17
2022-10-15T12:08:23.857Z,18.92
2022-10-15T12:11:09.554Z,20.13
2022-10-15T12:13:47.647Z,20.02
2022-10-15T12:16:26.835Z,20.83
2022-10-15T12:19:05.643Z,17.70
2022-10-15T12:21:40.994Z,18.35
2022-10-15T12:24:52.471Z,17.45
2022-10-15T12:27:34.586Z,23.95
2022-10-15T12:30:27.841Z,19.33
2022-10-15T12:32:56.440Z,19.35
2022-10-15T12:35:36.697Z,17.50
2022-10-15T12:38:24.573Z,18.20
2022-10-15T12:41:06.345Z,17.92
2022-10-15T12:43:39.626Z,19.45
2022-10-15T12:46:10.945Z,17.55
2022-10-15T12:48:42.426Z,18.83
2022-10-15T12:51:35.362Z,21.00
2022-10-15T12:54:03.677Z,20.05
2022-10-15T12:56:40.717Z,16.38
2022-10-15T12:59:32.978Z,17.65
2022-10-15T13:02:03.739Z,18.02
2022-10-15T13:04:43.036Z,16.92
2022-10-15T13:07:15.505Z,17.35
2022-10-15T13:09:44.009Z,19.40
2022-10-15T13:12:24.500Z,19.73
2022-10-15T13:14:59.224Z,20.88
2022-10-15T13:17:27.651Z,18.10
2022-10-15T13:19:59.587Z,17.33
2022-10-15T13:22:29.368Z,19.83
2022-10-15T13:24:58.329Z,19.65
2022-10-15T13:27:28.199Z,19.77
2022-10-15T13:30:00.171Z,19.08
2022-10-15T13:32:31.803Z,18.33
2022-10-15T13:35:01.119Z,16.13
2022-10-15T13:37:33.045Z,18.10
2022-10-15T13:40:06.575Z,19.02
2022-10-15T13:42:36.825Z,18.60
2022-10-15T13:45:18.490Z,17.38
2022-10-15T13:47:50.566Z,21.52
2022-10-15T13:50:22.143Z,20.52
2022-10-15T13:52:54.511Z,18.15
2022-10-15T13:55:26.787Z,18.75
2022-10-15T13:58:01.322Z,18.08
2022-10-15T14:00:34.069Z,20.48
2022-10-15T14:03:20.691Z,17.70
2022-10-15T14:05:50.722Z,23.73
2022-10-15T14:08:22.614Z,18.05
2022-10-15T14:10:52.363Z,16.70
2022-10-15T14:13:21.388Z,20.27
2022-10-15T14:16:16.720Z,17.90
2022-10-15T14:18:49.398Z,17.30
2022-10-15T14:21:20.451Z,19.08
2022-10-15T14:23:49.761Z,21.45
2022-10-15T14:26:25.727Z,20.10
2022-10-15T14:28:56.012Z,22.60
2022-10-15T14:31:39.947Z,17.13
2022-10-15T14:34:30.216Z,17.83
2022-10-15T14:36:58.779Z,17.77
2022-10-15T14:39:31.450Z,21.02
2022-10-15T14:42:01.652Z,24.35
2022-10-15T14:44:42.705Z,18.45
2022-10-15T14:47:22.168Z,24.33
2022-10-15T14:49:52.860Z,21.45
2022-10-15T14:52:22.894Z,20.88
2022-10-15T14:55:02.585Z,20.27
2022-10-15T14:57:33.424Z,27.42
2022-10-15T15:00:02.899Z,21.58
2022-10-15T15:02:32.631Z,20.65
2022-10-15T15:05:22.041Z,23.80
2022-10-15T15:07:50.493Z,25.20
2022-10-15T15:10:19.105Z,22.02
2022-10-15T15:12:51.387Z,22.92
2022-10-15T15:15:22.473Z,26.95
2022-10-15T15:17:52.484Z,23.55
2022-10-15T15:20:24.050Z,24.73
2022-10-15T15:22:55.217Z,27.10
2022-10-15T15:25:31.969Z,24.48
2022-10-15T15:28:00.766Z,27.55
2022-10-15T15:30:31.852Z,29.65
2022-10-15T15:33:02.252Z,26.75
2022-10-15T15:35:37.909Z,30.38
2022-10-15T15:38:08.716Z,28.00
2022-10-15T15:40:37.196Z,28.25
2022-10-15T15:43:05.521Z,27.48
2022-10-15T15:45:34.027Z,25.38
2022-10-15T15:48:04.912Z,26.13
2022-10-15T15:50:33.472Z,29.27
2022-10-15T15:53:01.762Z,27.45
2022-10-15T15:55:30.109Z,29.10
2022-10-15T15:57:58.375Z,26.10
2022-10-15T16:00:26.686Z,27.60
2022-10-15T16:02:57.784Z,26.67
2022-10-15T16:05:27.977Z,30.88
2022-10-15T16:07:56.377Z,30.80
2022-10-15T16:10:25.261Z,26.27
2022-10-15T16:12:53.706Z,24.38
2022-10-15T16:15:21.949Z,28.30
2022-10-15T16:17:50.315Z,24.33
2022-10-15T16:20:18.738Z,25.92
2022-10-15T16:22:50.804Z,26.38
2022-10-15T16:25:19.321Z,33.33
2022-10-15T16:27:48.881Z,29.48
2022-10-15T16:30:17.655Z,26.58
2022-10-15T16:32:46.539Z,31.80
2022-10-15T16:35:14.847Z,28.15
2022-10-15T16:37:43.210Z,28.20
2022-10-15T16:40:14.999Z,32.78
2022-10-15T16:42:43.301Z,27.88
2022-10-15T16:45:12.715Z,31.33
2022-10-15T16:47:41.075Z,31.58
2022-10-15T16:50:10.785Z,32.40
2022-10-15T16:52:39.094Z,30.25
2022-10-15T16:55:08.095Z,30.35
2022-10-15T16:57:37.815Z,34.05
2022-10-15T17:00:06.913Z,32.95
2022-10-15T17:02:35.257Z,28.75
2022-10-15T17:05:03.518Z,32.13
2022-10-15T17:07:31.868Z,36.40
2022-10-15T17:10:00.448Z,28.95
2022-10-15T17:12:29.037Z,29.35
2022-10-15T17:14:58.672Z,32.45
2022-10-15T17:17:26.953Z,27.40
2022-10-15T17:19:55.392Z,32.60
2022-10-15T17:22:23.988Z,29.45
2022-10-15T17:24:52.427Z,29.75
2022-10-15T17:27:22.207Z,32.38
2022-10-15T17:29:50.540Z,29.48
2022-10-15T17:32:20.271Z,30.17
2022-10-15T17:34:48.688Z,34.97
2022-10-15T17:37:17.083Z,36.92
2022-10-15T17:39:45.613Z,31.77
2022-10-15T17:42:15.866Z,39.20
2022-10-15T17:44:44.268Z,43.88
2022-10-15T17:47:13.450Z,39.38
2022-10-15T17:49:43.147Z,43.83
2022-10-15T17:52:12.891Z,41.40
2022-10-15T17:54:41.117Z,44.78
2022-10-15T17:57:09.482Z,41.38
2022-10-15T17:59:37.699Z,50.08
2022-10-15T18:02:06.244Z,40.47
2022-10-15T18:04:40.311Z,39.60
2022-10-15T18:07:10.181Z,43.92
2022-10-15T18:09:38.529Z,47.53
2022-10-15T18:12:07.556Z,44.97
2022-10-15T18:14:36.037Z,44.33
2022-10-15T18:17:05.207Z,41.55
2022-10-15T18:19:33.481Z,42.65
2022-10-15T18:22:01.804Z,45.33
2022-10-15T18:24:33.111Z,43.47
2022-10-15T18:27:06.020Z,41.42
2022-10-15T18:29:36.059Z,42.85
2022-10-15T18:32:04.525Z,48.30
2022-10-15T18:34:33.692Z,45.20
2022-10-15T18:37:02.204Z,43.72
2022-10-15T18:39:31.903Z,49.25
2022-10-15T18:42:00.260Z,46.15
2022-10-15T18:44:29.416Z,45.80
2022-10-15T18:46:57.894Z,45.30
2022-10-15T18:49:26.349Z,45.88
2022-10-15T18:51:55.466Z,41.80
2022-10-15T18:54:24.134Z,44.50
2022-10-15T18:56:54.084Z,41.95
2022-10-15T18:59:22.436Z,44.45
2022-10-15T19:01:53.717Z,46.33
2022-10-15T19:04:24.024Z,45.05
2022-10-15T19:06:54.206Z,42.08
2022-10-15T19:09:25.382Z,41.17
2022-10-15T19:11:57.069Z,41.42
2022-10-15T19:14:28.117Z,35.80
2022-10-15T19:16:58.048Z,42.55
2022-10-15T19:19:27.505Z,41.88
2022-10-15T19:21:58.655Z,36.22
2022-10-15T19:24:26.940Z,41.85
2022-10-15T19:26:56.718Z,40.80
2022-10-15T19:29:25.362Z,40.75
2022-10-15T19:31:55.847Z,40.92
2022-10-15T19:34:24.284Z,39.00
2022-10-15T19:36:53.154Z,40.92
2022-10-15T19:39:25.248Z,39.47
2022-10-15T19:41:54.230Z,37.80
2022-10-15T19:44:25.870Z,35.92
2022-10-15T19:46:55.106Z,41.70
2022-10-15T19:49:23.673Z,39.35
2022-10-15T19:51:52.651Z,38.53
2022-10-15T19:54:22.186Z,40.25
2022-10-15T19:56:50.514Z,38.08
2022-10-15T19:59:18.927Z,41.15
2022-10-15T20:01:48.731Z,39.60
2022-10-15T20:04:20.841Z,40.50
2022-10-15T20:06:52.711Z,36.72
2022-10-15T20:09:21.525Z,38.78
2022-10-15T20:11:52.700Z,38.28
2022-10-15T20:14:21.389Z,43.20
2022-10-15T20:16:53.545Z,35.35
2022-10-15T20:19:22.144Z,34.55
2022-10-15T20:21:51.202Z,36.47
2022-10-15T20:24:19.454Z,34.72
2022-10-15T20:26:47.750Z,39.72
2022-10-15T20:29:17.474Z,42.33
2022-10-15T20:31:45.811Z,40.40
2022-10-15T20:34:15.475Z,37.53
2022-10-15T20:36:43.826Z,35.40
2022-10-15T20:39:12.442Z,32.08
2022-10-15T20:41:41.742Z,34.35
2022-10-15T20:44:12.276Z,32.83
2022-10-15T20:46:42.873Z,31.50
2022-10-15T20:49:19.070Z,28.98
2022-10-15T20:51:47.534Z,31.88
2022-10-15T20:54:16.704Z,31.70
2022-10-15T20:56:44.985Z,31.33
2022-10-15T20:59:13.583Z,32.35
2022-10-15T21:01:41.957Z,28.48
2022-10-15T21:04:10.301Z,32.10
2022-10-15T21:06:40.120Z,28.58
2022-10-15T21:09:08.643Z,30.05
2022-10-15T21:11:41.598Z,31.52
2022-10-15T21:14:10.291Z,29.73
2022-10-15T21:16:39.057Z,31.20
2022-10-15T21:19:07.462Z,34.85
2022-10-15T21:21:35.835Z,27.92
2022-10-15T21:24:06.059Z,29.15
2022-10-15T21:26:34.734Z,27.52
2022-10-15T21:29:03.075Z,27.35
2022-10-15T21:31:31.318Z,30.67
2022-10-15T21:33:59.749Z,29.58
2022-10-15T21:36:29.487Z,28.52
2022-10-15T21:39:00.673Z,30.30
2022-10-15T21:41:32.797Z,30.63
2022-10-15T21:44:02.393Z,28.27
2022-10-15T21:46:31.676Z,25.58
2022-10-15T21:49:00.813Z,26.25
2022-10-15T21:51:30.668Z,31.90
2022-10-15T21:54:00.269Z,22.92
2022-10-15T21:56:30.645Z,25.90
2022-10-15T21:58:59.271Z,28.73
2022-10-15T22:01:29.033Z,27.80
2022-10-15T22:04:00.464Z,28.50
2022-10-15T22:06:31.586Z,26.55
2022-10-15T22:09:00.320Z,26.38
2022-10-15T22:11:31.699Z,27.10
2022-10-15T22:14:01.559Z,27.73
2022-10-15T22:16:30.710Z,26.17
2022-10-15T22:18:59.063Z,25.50
2022-10-15T22:21:28.589Z,27.48
2022-10-15T22:23:58.813Z,27.80
2022-10-15T22:26:31.058Z,26.60
2022-10-15T22:29:01.716Z,27.92
2022-10-15T22:31:30.590Z,25.48
2022-10-15T22:33:59.020Z,26.70
2022-10-15T22:36:29.421Z,26.42
2022-10-15T22:39:01.546Z,24.20
2022-10-15T22:41:33.960Z,28.10
2022-10-15T22:44:02.727Z,23.25
2022-10-15T22:46:34.379Z,24.10
2022-10-15T22:49:03.175Z,22.42
2022-10-15T22:51:31.378Z,25.13
2022-10-15T22:54:00.741Z,26.25
2022-10-15T22:56:31.471Z,24.63
2022-10-15T22:59:00.425Z,28.02
2022-10-15T23:01:30.971Z,25.85
2022-10-15T23:04:01.689Z,21.20
2022-10-15T23:06:31.041Z,27.20
2022-10-15T23:09:00.019Z,24.95
2022-10-15T23:11:29.862Z,24.20
